Time;durP1;ratioP1;P1;durP2;ratioP2;P2;SDS_P1;SDS_P2;PMS_P1;PMS_P2;Temp;Humidity;BMP_temperature;BMP_pressure;BME280_temperature;BME280_humidity;BME280_pressure;Samples;Min_cycle;Max_cycle;Signal;HPM_P1;HPM_P2
2022/01/16 00:00:32;;;;;;;;;;;;;;;;;;5086248;28;1719;-81
2022/01/16 00:05:41;;;;;;;;;;;;;;;;;;5080519;28;1728;-80
2022/01/16 00:08:06;;;;;;;;;;;;;;;;;;5085354;28;1653;-80
2022/01/16 00:10:31;;;;;;;;;;;;;;;;;;5077550;28;1680;-78
2022/01/16 00:12:59;;;;;;;;;;;;;;;;;;5082580;28;1920;-82
2022/01/16 00:15:24;;;;;;;;;;;;;;;;;;5079525;28;1902;-83
2022/01/16 00:18:06;;;;;;;;;;;;;;;;;;5080516;28;1670;-83
2022/01/16 00:20:32;;;;;;;;;;;;;;;;;;5083182;28;1553;-86
2022/01/16 00:22:58;;;;;;;;;;;;;;;;;;5083178;28;1910;-84
2022/01/16 00:25:23;;;;;;;;;;;;;;;;;;5079871;28;1447;-84
2022/01/16 00:27:48;;;;;;;;;;;;;;;;;;5075120;28;1570;-84
2022/01/16 00:30:13;;;;;;;;;;;;;;;;;;5083216;28;1591;-85
2022/01/16 00:32:39;;;;;;;;;;;;;;;;;;5084468;28;1686;-85
2022/01/16 00:35:04;;;;;;;;;;;;;;;;;;5089899;28;1901;-85
2022/01/16 00:37:29;;;;;;;;;;;;;;;;;;5077515;28;1702;-84
2022/01/16 00:39:54;;;;;;;;;;;;;;;;;;5080422;28;1817;-84
2022/01/16 00:42:20;;;;;;;;;;;;;;;;;;5078585;28;1659;-84
2022/01/16 00:44:45;;;;;;;;;;;;;;;;;;5078265;28;1605;-85
2022/01/16 00:47:10;;;;;;;;;;;;;;;;;;5077909;28;1833;-84
2022/01/16 00:49:39;;;;;;;;;;;;;;;;;;5081064;28;1603;-82
2022/01/16 00:52:04;;;;;;;;;;;;;;;;;;5083074;28;1688;-83
2022/01/16 00:54:29;;;;;;;;;;;;;;;;;;5077840;28;1716;-84
2022/01/16 00:56:54;;;;;;;;;;;;;;;;;;5075941;28;1901;-84
2022/01/16 00:59:20;;;;;;;;;;;;;;;;;;5081820;28;1653;-83
2022/01/16 01:01:45;;;;;;;;;;;;;;;;;;5074179;28;1855;-83
2022/01/16 01:04:10;;;;;;;;;;;;;;;;;;5065691;28;1663;-83
2022/01/16 01:06:36;;;;;;;;;;;;;;;;;;5075244;28;1717;-83
2022/01/16 01:09:01;;;;;;;;;;;;;;;;;;5078022;28;1586;-83
2022/01/16 01:11:29;;;;;;;;;;;;;;;;;;5092309;28;1353;-84
2022/01/16 01:13:57;;;;;;;;;;;;;;;;;;5087389;28;1539;-82
2022/01/16 01:16:23;;;;;;;;;;;;;;;;;;5081992;28;1950;-83
2022/01/16 01:18:48;;;;;;;;;;;;;;;;;;5077845;28;1622;-83
2022/01/16 01:21:26;;;;;;;;;;;;;;;;;;5083136;28;1508;-82
2022/01/16 01:23:52;;;;;;;;;;;;;;;;;;5080255;28;1487;-81
2022/01/16 01:26:17;;;;;;;;;;;;;;;;;;5078576;28;1575;-81
2022/01/16 01:28:42;;;;;;;;;;;;;;;;;;5078445;28;1678;-82
2022/01/16 01:31:09;;;;;;;;;;;;;;;;;;5083738;28;1687;-83
2022/01/16 01:33:35;;;;;;;;;;;;;;;;;;5079905;28;1707;-82
2022/01/16 01:36:00;;;;;;;;;;;;;;;;;;5077670;28;1972;-82
2022/01/16 01:38:25;;;;;;;;;;;;;;;;;;5082152;28;1486;-82
2022/01/16 01:40:51;;;;;;;;;;;;;;;;;;5073880;28;1635;-82
2022/01/16 01:51:10;;;;;;;;;;;;;;;;;;5085898;28;1525;-83
2022/01/16 01:53:36;;;;;;;;;;;;;;;;;;5075321;28;1729;-82
2022/01/16 01:56:02;;;;;;;;;;;;;;;;;;5077248;28;1969;-80
2022/01/16 01:58:28;;;;;;;;;;;;;;;;;;5082907;28;1717;-81
2022/01/16 02:00:53;;;;;;;;;;;;;;;;;;5086024;28;1501;-82
2022/01/16 02:03:32;;;;;;;;;;;;;;;;;;5070616;28;1670;-81
2022/01/16 02:05:58;;;;;;;;;;;;;;;;;;5082299;28;1696;-81
2022/01/16 02:08:23;;;;;;;;;;;;;;;;;;5077287;28;1691;-82
2022/01/16 02:10:48;;;;;;;;;;;;;;;;;;5081102;28;1577;-82
2022/01/16 02:13:44;;;;;;;;;;;;;;;;;;5080277;28;1757;-81
2022/01/16 02:34:35;;;;;;;;;;;;;;;;;;5081075;28;1662;-81
2022/01/16 02:37:05;;;;;;;;;;;;;;;;;;5077023;28;1919;-81
2022/01/16 02:39:31;;;;;;;;;;;;;;;;;;5082697;28;1682;-82
2022/01/16 02:41:58;;;;;;;;;;;;;;;;;;5060085;28;1686;-81
2022/01/16 02:44:30;;;;;;;;;;;;;;;;;;5085754;28;1653;-81
2022/01/16 02:46:56;;;;;;;;;;;;;;;;;;5077419;28;1678;-82
2022/01/16 02:49:31;;;;;;;;;;;;;;;;;;5083244;28;1632;-82
2022/01/16 02:51:58;;;;;;;;;;;;;;;;;;5077767;28;1970;-82
2022/01/16 02:54:23;;;;;;;;;;;;;;;;;;5073649;28;1748;-81
2022/01/16 02:56:49;;;;;;;;;;;;;;;;;;5072554;28;1890;-81
2022/01/16 02:59:14;;;;;;;;;;;;;;;;;;5072228;28;1720;-81
2022/01/16 03:01:39;;;;;;;;;;;;;;;;;;5079792;28;1563;-81
2022/01/16 03:04:05;;;;;;;;;;;;;;;;;;5087745;28;1664;-81
2022/01/16 03:06:30;;;;;;;;;;;;;;;;;;5085399;28;1770;-81
2022/01/16 03:08:56;;;;;;;;;;;;;;;;;;5084388;28;1744;-79
2022/01/16 03:13:48;;;;;;;;;;;;;;;;;;5079540;28;1676;-81
2022/01/16 03:16:14;;;;;;;;;;;;;;;;;;5084244;28;1910;-80
2022/01/16 03:24:07;;;;;;;;;;;;;;;;;;5079201;28;1502;-81
2022/01/16 03:26:33;;;;;;;;;;;;;;;;;;5088360;28;1676;-80
2022/01/16 03:28:58;;;;;;;;;;;;;;;;;;5081610;28;1677;-80
2022/01/16 03:31:23;;;;;;;;;;;;;;;;;;5080834;28;1652;-81
2022/01/16 03:33:48;;;;;;;;;;;;;;;;;;5074829;28;1712;-81
2022/01/16 03:36:13;;;;;;;;;;;;;;;;;;5081984;28;1918;-80
2022/01/16 03:38:39;;;;;;;;;;;;;;;;;;5077892;28;1648;-80
2022/01/16 03:41:04;;;;;;;;;;;;;;;;;;5079125;28;1654;-81
2022/01/16 03:43:29;;;;;;;;;;;;;;;;;;5069460;28;1488;-81
2022/01/16 03:45:54;;;;;;;;;;;;;;;;;;5089856;28;1664;-82
2022/01/16 03:48:19;;;;;;;;;;;;;;;;;;5083044;28;1535;-81
2022/01/16 03:50:45;;;;;;;;;;;;;;;;;;5083326;28;1421;-80
2022/01/16 03:53:10;;;;;;;;;;;;;;;;;;5080438;28;1664;-81
2022/01/16 03:55:35;;;;;;;;;;;;;;;;;;5077499;28;1875;-81
2022/01/16 03:58:01;;;;;;;;;;;;;;;;;;5077144;28;1495;-80
2022/01/16 04:00:26;;;;;;;;;;;;;;;;;;5076518;28;1644;-81
2022/01/16 04:02:52;;;;;;;;;;;;;;;;;;5079614;28;1756;-81
2022/01/16 04:05:17;;;;;;;;;;;;;;;;;;5082014;28;1654;-81
2022/01/16 04:07:42;;;;;;;;;;;;;;;;;;5077742;28;1649;-80
2022/01/16 04:10:08;;;;;;;;;;;;;;;;;;5081174;28;1512;-81
2022/01/16 04:12:35;;;;;;;;;;;;;;;;;;5083561;28;1676;-81
2022/01/16 04:17:26;;;;;;;;;;;;;;;;;;5084070;28;1732;-80
2022/01/16 04:19:51;;;;;;;;;;;;;;;;;;5090718;28;1660;-81
2022/01/16 04:22:16;;;;;;;;;;;;;;;;;;5081367;28;1743;-81
2022/01/16 04:24:42;;;;;;;;;;;;;;;;;;5081116;28;1729;-82
2022/01/16 04:27:10;;;;;;;;;;;;;;;;;;5079012;28;1702;-82
2022/01/16 04:29:35;;;;;;;;;;;;;;;;;;5077919;28;1663;-80
2022/01/16 04:32:00;;;;;;;;;;;;;;;;;;5081737;28;1633;-82
2022/01/16 04:34:25;;;;;;;;;;;;;;;;;;5079333;28;1621;-82
2022/01/16 04:36:50;;;;;;;;;;;;;;;;;;5075460;28;1968;-81
2022/01/16 04:39:19;;;;;;;;;;;;;;;;;;5087096;28;1704;-82
2022/01/16 04:44:49;;;;;;;;;;;;;;;;;;5059993;28;1587;-82
2022/01/16 04:47:14;;;;;;;;;;;;;;;;;;5044414;28;1754;-81
2022/01/16 04:49:39;;;;;;;;;;;;;;;;;;5057547;28;1737;-82
2022/01/16 04:52:05;;;;;;;;;;;;;;;;;;5080409;28;1720;-81
2022/01/16 04:54:31;;;;;;;;;;;;;;;;;;5079418;28;1497;-81
2022/01/16 04:56:56;;;;;;;;;;;;;;;;;;5077334;28;1901;-81
2022/01/16 04:59:22;;;;;;;;;;;;;;;;;;5083471;28;1656;-81
2022/01/16 05:01:47;;;;;;;;;;;;;;;;;;5078037;28;1680;-80
2022/01/16 05:04:12;;;;;;;;;;;;;;;;;;5081145;28;1648;-81
2022/01/16 05:06:37;;;;;;;;;;;;;;;;;;5079001;28;1884;-81
2022/01/16 05:09:02;;;;;;;;;;;;;;;;;;5079383;28;1673;-80
2022/01/16 05:11:28;;;;;;;;;;;;;;;;;;5075668;28;1564;-81
2022/01/16 05:16:38;;;;;;;;;;;;;;;;;;5073325;28;1957;-80
2022/01/16 05:19:04;;;;;;;;;;;;;;;;;;5082512;28;1545;-80
2022/01/16 05:21:29;;;;;;;;;;;;;;;;;;5084282;28;1686;-81
2022/01/16 05:23:54;;;;;;;;;;;;;;;;;;5081968;28;1611;-81
2022/01/16 05:26:26;;;;;;;;;;;;;;;;;;5088531;28;1828;-81
2022/01/16 05:28:51;;;;;;;;;;;;;;;;;;5078289;28;1696;-81
2022/01/16 05:31:16;;;;;;;;;;;;;;;;;;5073760;28;1629;-81
2022/01/16 05:33:41;;;;;;;;;;;;;;;;;;5082796;28;1634;-79
2022/01/16 05:36:07;;;;;;;;;;;;;;;;;;5083643;28;1922;-80
2022/01/16 05:38:32;;;;;;;;;;;;;;;;;;5080263;28;1521;-80
2022/01/16 05:40:57;;;;;;;;;;;;;;;;;;5081725;28;1700;-80
2022/01/16 05:43:22;;;;;;;;;;;;;;;;;;5081841;28;1731;-80
2022/01/16 05:45:47;;;;;;;;;;;;;;;;;;5078310;28;1820;-81
2022/01/16 05:48:12;;;;;;;;;;;;;;;;;;5085703;28;1725;-81
2022/01/16 05:50:38;;;;;;;;;;;;;;;;;;5078730;28;1588;-80
2022/01/16 05:53:04;;;;;;;;;;;;;;;;;;5083535;28;1871;-81
2022/01/16 05:55:36;;;;;;;;;;;;;;;;;;5082709;28;1957;-81
2022/01/16 05:58:01;;;;;;;;;;;;;;;;;;5082365;28;1804;-81
2022/01/16 06:00:26;;;;;;;;;;;;;;;;;;5079818;28;1629;-81
2022/01/16 06:02:52;;;;;;;;;;;;;;;;;;5086945;28;1701;-81
2022/01/16 06:05:17;;;;;;;;;;;;;;;;;;5076296;28;1656;-81
2022/01/16 06:07:51;;;;;;;;;;;;;;;;;;5077843;28;1769;-81
2022/01/16 06:10:16;;;;;;;;;;;;;;;;;;5078909;28;1625;-81
2022/01/16 06:12:41;;;;;;;;;;;;;;;;;;5089036;28;1650;-81
2022/01/16 06:15:06;;;;;;;;;;;;;;;;;;5080733;28;1963;-81
2022/01/16 06:17:32;;;;;;;;;;;;;;;;;;5077757;28;1636;-81
2022/01/16 06:19:57;;;;;;;;;;;;;;;;;;5081551;28;1583;-81
2022/01/16 06:22:22;;;;;;;;;;;;;;;;;;5082818;28;1793;-80
2022/01/16 06:24:47;;;;;;;;;;;;;;;;;;5079146;28;1664;-81
2022/01/16 06:27:13;;;;;;;;;;;;;;;;;;5083506;28;1717;-82
2022/01/16 06:29:38;;;;;;;;;;;;;;;;;;5079714;28;1672;-82
2022/01/16 06:32:03;;;;;;;;;;;;;;;;;;5084945;28;1625;-81
2022/01/16 06:34:29;;;;;;;;;;;;;;;;;;5086966;28;1537;-80
2022/01/16 06:36:54;;;;;;;;;;;;;;;;;;5073969;28;1910;-81
2022/01/16 06:39:19;;;;;;;;;;;;;;;;;;5094153;28;1743;-81
2022/01/16 06:41:44;;;;;;;;;;;;;;;;;;5075339;28;1254;-82
2022/01/16 06:44:10;;;;;;;;;;;;;;;;;;5076555;28;1673;-81
2022/01/16 06:46:35;;;;;;;;;;;;;;;;;;5075717;28;1697;-81
2022/01/16 06:49:00;;;;;;;;;;;;;;;;;;5076119;28;1427;-80
2022/01/16 06:51:25;;;;;;;;;;;;;;;;;;5075540;28;1586;-81
2022/01/16 06:53:53;;;;;;;;;;;;;;;;;;5077608;28;1617;-81
2022/01/16 06:56:18;;;;;;;;;;;;;;;;;;5075163;28;1906;-81
2022/01/16 06:58:43;;;;;;;;;;;;;;;;;;5089823;28;1861;-81
2022/01/16 07:01:10;;;;;;;;;;;;;;;;;;5094066;28;1721;-80
2022/01/16 07:03:35;;;;;;;;;;;;;;;;;;5095023;28;1383;-81
2022/01/16 07:06:01;;;;;;;;;;;;;;;;;;5080553;28;1657;-81
2022/01/16 07:08:26;;;;;;;;;;;;;;;;;;5073942;28;1619;-81
2022/01/16 07:10:56;;;;;;;;;;;;;;;;;;5076013;28;1360;-81
2022/01/16 07:13:21;;;;;;;;;;;;;;;;;;5077724;28;1685;-81
2022/01/16 07:15:47;;;;;;;;;;;;;;;;;;5072646;28;1910;-81
2022/01/16 07:18:12;;;;;;;;;;;;;;;;;;5075199;28;1579;-81
2022/01/16 07:20:38;;;;;;;;;;;;;;;;;;5073827;28;1605;-81
2022/01/16 07:23:03;;;;;;;;;;;;;;;;;;5075202;28;1583;-80
2022/01/16 07:25:28;;;;;;;;;;;;;;;;;;5074283;28;1636;-80
2022/01/16 07:27:54;;;;;;;;;;;;;;;;;;5080232;28;1647;-80
2022/01/16 07:30:19;;;;;;;;;;;;;;;;;;5083657;28;1539;-80
2022/01/16 07:32:44;;;;;;;;;;;;;;;;;;5082864;28;1555;-81
2022/01/16 07:35:09;;;;;;;;;;;;;;;;;;5084341;28;1959;-82
2022/01/16 07:37:35;;;;;;;;;;;;;;;;;;5084205;28;1973;-81
2022/01/16 07:40:00;;;;;;;;;;;;;;;;;;5084210;28;1225;-81
2022/01/16 07:42:25;;;;;;;;;;;;;;;;;;5079494;28;1676;-81
2022/01/16 07:44:50;;;;;;;;;;;;;;;;;;5085977;28;1228;-81
2022/01/16 07:47:15;;;;;;;;;;;;;;;;;;5081413;28;1694;-80
2022/01/16 07:49:41;;;;;;;;;;;;;;;;;;5084027;28;1187;-81
2022/01/16 07:52:06;;;;;;;;;;;;;;;;;;5082887;28;1570;-81
2022/01/16 07:54:31;;;;;;;;;;;;;;;;;;5085302;28;1415;-81
2022/01/16 07:56:56;;;;;;;;;;;;;;;;;;5081372;28;1984;-80
2022/01/16 07:59:22;;;;;;;;;;;;;;;;;;5084277;28;1283;-78
2022/01/16 08:01:47;;;;;;;;;;;;;;;;;;5082713;28;1662;-81
2022/01/16 08:04:12;;;;;;;;;;;;;;;;;;5084051;28;1382;-84
2022/01/16 08:06:37;;;;;;;;;;;;;;;;;;5084865;28;1322;-84
2022/01/16 08:09:02;;;;;;;;;;;;;;;;;;5088116;28;1576;-85
2022/01/16 08:11:28;;;;;;;;;;;;;;;;;;5084767;28;1501;-84
2022/01/16 08:13:53;;;;;;;;;;;;;;;;;;5081000;28;1557;-82
2022/01/16 08:16:18;;;;;;;;;;;;;;;;;;5084177;28;1955;-81
2022/01/16 08:18:43;;;;;;;;;;;;;;;;;;5083603;28;1613;-83
2022/01/16 08:21:08;;;;;;;;;;;;;;;;;;5083617;28;1437;-84
2022/01/16 08:23:34;;;;;;;;;;;;;;;;;;5083337;28;1574;-82
2022/01/16 08:25:59;;;;;;;;;;;;;;;;;;5083454;28;1439;-83
2022/01/16 08:28:24;;;;;;;;;;;;;;;;;;5083291;28;1787;-83
2022/01/16 08:30:49;;;;;;;;;;;;;;;;;;5082140;28;1629;-82
2022/01/16 08:33:15;;;;;;;;;;;;;;;;;;5085232;28;1237;-82
2022/01/16 08:35:40;;;;;;;;;;;;;;;;;;5084397;28;1902;-82
2022/01/16 08:38:05;;;;;;;;;;;;;;;;;;5083789;28;1741;-82
2022/01/16 08:40:30;;;;;;;;;;;;;;;;;;5083910;28;1586;-82
2022/01/16 08:42:55;;;;;;;;;;;;;;;;;;5079264;28;1455;-80
2022/01/16 08:45:21;;;;;;;;;;;;;;;;;;5081704;28;1804;-84
2022/01/16 08:47:46;;;;;;;;;;;;;;;;;;5082940;28;1569;-82
2022/01/16 08:50:11;;;;;;;;;;;;;;;;;;5080523;28;1621;-81
2022/01/16 08:52:38;;;;;;;;;;;;;;;;;;5083095;28;1583;-81
2022/01/16 08:55:04;;;;;;;;;;;;;;;;;;5078811;28;1897;-82
2022/01/16 08:57:29;;;;;;;;;;;;;;;;;;5081156;28;1735;-82
2022/01/16 08:59:54;;;;;;;;;;;;;;;;;;5080672;28;1716;-81
2022/01/16 09:02:19;;;;;;;;;;;;;;;;;;5079492;28;1599;-82
2022/01/16 09:04:45;;;;;;;;;;;;;;;;;;5065015;28;1651;-82
2022/01/16 09:07:10;;;;;;;;;;;;;;;;;;5079510;28;1680;-83
2022/01/16 09:09:35;;;;;;;;;;;;;;;;;;5082601;28;1519;-83
2022/01/16 09:12:01;;;;;;;;;;;;;;;;;;5081245;28;1627;-82
2022/01/16 09:14:26;;;;;;;;;;;;;;;;;;5082371;28;1248;-79
2022/01/16 09:16:51;;;;;;;;;;;;;;;;;;5082779;28;1941;-78
2022/01/16 09:19:16;;;;;;;;;;;;;;;;;;5081275;28;1515;-79
2022/01/16 09:21:42;;;;;;;;;;;;;;;;;;5082322;28;1414;-81
2022/01/16 09:24:07;;;;;;;;;;;;;;;;;;5063566;28;1628;-81
2022/01/16 09:26:32;;;;;;;;;;;;;;;;;;5081207;28;1488;-82
2022/01/16 09:28:58;;;;;;;;;;;;;;;;;;5080283;28;1526;-80
2022/01/16 09:31:23;;;;;;;;;;;;;;;;;;5082060;28;1300;-80
2022/01/16 09:33:48;;;;;;;;;;;;;;;;;;5083473;28;1271;-80
2022/01/16 09:36:13;;;;;;;;;;;;;;;;;;5081452;28;1914;-79
2022/01/16 09:38:40;;;;;;;;;;;;;;;;;;5083846;28;1291;-82
2022/01/16 09:41:05;;;;;;;;;;;;;;;;;;5065591;28;1597;-82
2022/01/16 09:43:34;;;;;;;;;;;;;;;;;;5082039;28;1781;-82
2022/01/16 09:45:59;;;;;;;;;;;;;;;;;;5083225;28;1656;-84
2022/01/16 09:48:24;;;;;;;;;;;;;;;;;;5080094;28;1506;-85
2022/01/16 09:50:50;;;;;;;;;;;;;;;;;;5082705;28;1527;-82
2022/01/16 09:53:15;;;;;;;;;;;;;;;;;;5081321;28;1243;-83
2022/01/16 09:55:41;;;;;;;;;;;;;;;;;;5082062;28;1914;-82
2022/01/16 09:58:06;;;;;;;;;;;;;;;;;;5079951;28;1637;-82
2022/01/16 10:00:31;;;;;;;;;;;;;;;;;;5081515;28;1563;-82
2022/01/16 10:02:57;;;;;;;;;;;;;;;;;;5076507;28;1372;-80
2022/01/16 10:05:29;;;;;;;;;;;;;;;;;;5073052;28;869;-79
2022/01/16 10:07:54;;;;;;;;;;;;;;;;;;5072339;28;1569;-81
2022/01/16 10:10:19;;;;;;;;;;;;;;;;;;5077585;28;1711;-79
2022/01/16 10:12:51;;;;;;;;;;;;;;;;;;5077294;28;1557;-82
2022/01/16 10:15:16;;;;;;;;;;;;;;;;;;5072968;28;1902;-82
2022/01/16 10:17:45;;;;;;;;;;;;;;;;;;5071008;28;1752;-82
2022/01/16 10:20:11;;;;;;;;;;;;;;;;;;5089753;28;1594;-84
2022/01/16 10:22:42;;;;;;;;;;;;;;;;;;5080571;28;1562;-83
2022/01/16 10:25:08;;;;;;;;;;;;;;;;;;5080828;28;1675;-86
2022/01/16 10:27:34;;;;;;;;;;;;;;;;;;5077655;28;1851;-86
2022/01/16 10:30:01;;;;;;;;;;;;;;;;;;5074383;28;1619;-83
2022/01/16 10:32:28;;;;;;;;;;;;;;;;;;5073138;28;1642;-84
2022/01/16 10:35:12;;;;;;;;;;;;;;;;;;5080347;28;1552;-83
2022/01/16 10:37:38;;;;;;;;;;;;;;;;;;5079489;28;1789;-84
2022/01/16 10:40:06;;;;;;;;;;;;;;;;;;5078089;28;1690;-82
2022/01/16 10:42:32;;;;;;;;;;;;;;;;;;5079997;28;1659;-81
2022/01/16 10:44:58;;;;;;;;;;;;;;;;;;5055120;28;1685;-82
2022/01/16 10:47:25;;;;;;;;;;;;;;;;;;5071265;28;1647;-81
2022/01/16 10:50:00;;;;;;;;;;;;;;;;;;5072081;28;1543;-81
2022/01/16 10:52:25;;;;;;;;;;;;;;;;;;5076543;28;1681;-79
2022/01/16 10:54:50;;;;;;;;;;;;;;;;;;5086867;28;1516;-81
2022/01/16 10:57:20;;;;;;;;;;;;;;;;;;5077046;28;1905;-80
2022/01/16 10:59:45;;;;;;;;;;;;;;;;;;5073911;28;1543;-81
2022/01/16 11:02:10;;;;;;;;;;;;;;;;;;5074148;28;1498;-85
2022/01/16 11:04:35;;;;;;;;;;;;;;;;;;5090828;28;1634;-83
2022/01/16 11:07:03;;;;;;;;;;;;;;;;;;5085567;28;1530;-84
2022/01/16 11:09:29;;;;;;;;;;;;;;;;;;5070731;28;1605;-84
2022/01/16 11:11:59;;;;;;;;;;;;;;;;;;5081723;28;1527;-82
2022/01/16 11:14:24;;;;;;;;;;;;;;;;;;5086857;28;1615;-83
2022/01/16 11:16:49;;;;;;;;;;;;;;;;;;5092579;28;1906;-81
2022/01/16 11:19:15;;;;;;;;;;;;;;;;;;5081882;28;1666;-83
2022/01/16 11:21:43;;;;;;;;;;;;;;;;;;5079741;28;1578;-82
2022/01/16 11:26:43;;;;;;;;;;;;;;;;;;5080805;28;1538;-83
2022/01/16 11:29:08;;;;;;;;;;;;;;;;;;5089297;28;1619;-85
2022/01/16 11:31:33;;;;;;;;;;;;;;;;;;5093098;28;1586;-83
2022/01/16 11:33:58;;;;;;;;;;;;;;;;;;5084018;28;1651;-83
2022/01/16 11:36:25;;;;;;;;;;;;;;;;;;5082516;28;1913;-81
2022/01/16 11:38:54;;;;;;;;;;;;;;;;;;5092238;28;1643;-80
2022/01/16 11:41:24;;;;;;;;;;;;;;;;;;5092960;28;1626;-81
2022/01/16 11:43:50;;;;;;;;;;;;;;;;;;5087596;28;1567;-86
2022/01/16 11:46:16;;;;;;;;;;;;;;;;;;5079926;28;1810;-83
2022/01/16 11:49:03;;;;;;;;;;;;;;;;;;5083221;28;1701;-84
2022/01/16 11:51:34;;;;;;;;;;;;;;;;;;5078882;28;1606;-85
2022/01/16 11:54:10;;;;;;;;;;;;;;;;;;5085299;28;1448;-85
2022/01/16 11:56:41;;;;;;;;;;;;;;;;;;5083828;28;1965;-85
2022/01/16 11:59:16;;;;;;;;;;;;;;;;;;5083455;28;1602;-84
2022/01/16 12:01:45;;;;;;;;;;;;;;;;;;5086260;28;1650;-85
2022/01/16 12:04:32;;;;;;;;;;;;;;;;;;5082489;28;1745;-85
2022/01/16 12:07:00;;;;;;;;;;;;;;;;;;5084237;28;1678;-85
2022/01/16 12:09:35;;;;;;;;;;;;;;;;;;5083291;28;1694;-85
2022/01/16 12:12:00;;;;;;;;;;;;;;;;;;5084188;28;1511;-82
2022/01/16 12:14:44;;;;;;;;;;;;;;;;;;5062363;28;1729;-86
2022/01/16 12:17:29;;;;;;;;;;;;;;;;;;5084099;28;1897;-84
2022/01/16 12:19:59;;;;;;;;;;;;;;;;;;5081491;28;1630;-86
2022/01/16 12:22:43;;;;;;;;;;;;;;;;;;5064554;28;1639;-87
2022/01/16 12:25:18;;;;;;;;;;;;;;;;;;5080890;28;1635;-88
2022/01/16 12:28:00;;;;;;;;;;;;;;;;;;5076146;28;1489;-87
2022/01/16 12:30:32;;;;;;;;;;;;;;;;;;5074758;28;1753;-83
2022/01/16 12:33:10;;;;;;;;;;;;;;;;;;5074001;28;1511;-84
2022/01/16 12:35:39;;;;;;;;;;;;;;;;;;5077244;28;1959;-83
2022/01/16 12:38:11;;;;;;;;;;;;;;;;;;5080099;28;1412;-81
2022/01/16 12:40:40;;;;;;;;;;;;;;;;;;5081087;28;1568;-81
2022/01/16 12:43:12;;;;;;;;;;;;;;;;;;5083663;28;1432;-82
2022/01/16 12:45:40;;;;;;;;;;;;;;;;;;5082296;28;1696;-82
2022/01/16 12:48:05;;;;;;;;;;;;;;;;;;5082285;28;1459;-83
2022/01/16 12:50:31;;;;;;;;;;;;;;;;;;5080458;28;1519;-82
2022/01/16 12:52:56;;;;;;;;;;;;;;;;;;5083721;28;1460;-82
2022/01/16 12:55:27;;;;;;;;;;;;;;;;;;5078496;28;1890;-81
2022/01/16 12:57:53;;;;;;;;;;;;;;;;;;5082602;28;1790;-83
2022/01/16 13:00:18;;;;;;;;;;;;;;;;;;5081117;28;1642;-83
2022/01/16 13:02:43;;;;;;;;;;;;;;;;;;5080102;28;1646;-82
2022/01/16 13:05:08;;;;;;;;;;;;;;;;;;5081487;28;1592;-82
2022/01/16 13:07:34;;;;;;;;;;;;;;;;;;5082882;28;1702;-82
2022/01/16 13:09:59;;;;;;;;;;;;;;;;;;5082287;28;1581;-82
2022/01/16 13:12:25;;;;;;;;;;;;;;;;;;5082875;28;1305;-81
2022/01/16 13:14:50;;;;;;;;;;;;;;;;;;5079278;28;1636;-82
2022/01/16 13:17:16;;;;;;;;;;;;;;;;;;5080152;28;1901;-83
2022/01/16 13:19:52;;;;;;;;;;;;;;;;;;5065015;28;1551;-83
2022/01/16 13:22:27;;;;;;;;;;;;;;;;;;5079741;28;1558;-83
2022/01/16 13:24:53;;;;;;;;;;;;;;;;;;5078245;28;1565;-84
2022/01/16 13:27:21;;;;;;;;;;;;;;;;;;5074407;28;1625;-85
2022/01/16 13:29:58;;;;;;;;;;;;;;;;;;5083028;28;1434;-83
2022/01/16 13:32:31;;;;;;;;;;;;;;;;;;5072244;28;1609;-81
2022/01/16 13:34:57;;;;;;;;;;;;;;;;;;5087332;28;1444;-84
2022/01/16 13:37:25;;;;;;;;;;;;;;;;;;5072081;28;1906;-84
2022/01/16 13:39:52;;;;;;;;;;;;;;;;;;5078571;28;1617;-84
2022/01/16 13:42:18;;;;;;;;;;;;;;;;;;5080309;28;1386;-82
2022/01/16 13:44:43;;;;;;;;;;;;;;;;;;5080678;28;1586;-84
2022/01/16 13:47:09;;;;;;;;;;;;;;;;;;5078700;28;1612;-84
2022/01/16 13:49:34;;;;;;;;;;;;;;;;;;5080944;28;1581;-83
2022/01/16 13:52:00;;;;;;;;;;;;;;;;;;5079502;28;1835;-84
2022/01/16 13:54:29;;;;;;;;;;;;;;;;;;5082047;28;1310;-87
2022/01/16 13:56:56;;;;;;;;;;;;;;;;;;5068468;28;1905;-85
2022/01/16 13:59:22;;;;;;;;;;;;;;;;;;5080547;28;1582;-83
2022/01/16 14:01:51;;;;;;;;;;;;;;;;;;5081331;28;2035;-83
2022/01/16 14:04:16;;;;;;;;;;;;;;;;;;5081051;28;1638;-83
2022/01/16 14:06:49;;;;;;;;;;;;;;;;;;5079083;28;1606;-84
2022/01/16 14:09:14;;;;;;;;;;;;;;;;;;5078666;28;1655;-82
2022/01/16 14:11:41;;;;;;;;;;;;;;;;;;5082509;28;1317;-82
2022/01/16 14:14:06;;;;;;;;;;;;;;;;;;5082441;28;1590;-82
2022/01/16 14:16:32;;;;;;;;;;;;;;;;;;5079810;28;1902;-82
2022/01/16 14:24:01;;;;;;;;;;;;;;;;;;5082647;28;1375;-83
2022/01/16 14:26:26;;;;;;;;;;;;;;;;;;5079287;28;1602;-84
2022/01/16 14:28:51;;;;;;;;;;;;;;;;;;5082333;28;1523;-84
2022/01/16 14:31:17;;;;;;;;;;;;;;;;;;5081616;28;1756;-83
2022/01/16 14:33:42;;;;;;;;;;;;;;;;;;5080059;28;1481;-85
2022/01/16 14:36:07;;;;;;;;;;;;;;;;;;5070660;28;1981;-85
2022/01/16 14:38:35;;;;;;;;;;;;;;;;;;5063420;28;1698;-85
2022/01/16 14:41:00;;;;;;;;;;;;;;;;;;5080509;28;1708;-86
2022/01/16 14:43:27;;;;;;;;;;;;;;;;;;5064609;28;1674;-86
2022/01/16 14:45:53;;;;;;;;;;;;;;;;;;5081209;28;1701;-84
2022/01/16 14:48:18;;;;;;;;;;;;;;;;;;5079365;28;1662;-84
2022/01/16 14:50:43;;;;;;;;;;;;;;;;;;5081788;28;1458;-83
2022/01/16 14:53:08;;;;;;;;;;;;;;;;;;5078643;28;1544;-84
2022/01/16 14:55:35;;;;;;;;;;;;;;;;;;5080224;28;1897;-87
2022/01/16 14:58:00;;;;;;;;;;;;;;;;;;5081901;28;1601;-84
2022/01/16 15:00:25;;;;;;;;;;;;;;;;;;5084729;28;1582;-83
2022/01/16 15:02:51;;;;;;;;;;;;;;;;;;5082553;28;1637;-82
2022/01/16 15:05:16;;;;;;;;;;;;;;;;;;5082626;28;1556;-83
2022/01/16 15:07:43;;;;;;;;;;;;;;;;;;5084264;28;1599;-83
2022/01/16 15:10:09;;;;;;;;;;;;;;;;;;5085128;28;1386;-85
2022/01/16 15:12:36;;;;;;;;;;;;;;;;;;5081122;28;1690;-86
2022/01/16 15:15:01;;;;;;;;;;;;;;;;;;5085480;28;1177;-83
2022/01/16 15:17:29;;;;;;;;;;;;;;;;;;5081886;28;1922;-84
2022/01/16 15:19:58;;;;;;;;;;;;;;;;;;5084736;28;1508;-85
2022/01/16 15:22:25;;;;;;;;;;;;;;;;;;5083173;28;1614;-86
2022/01/16 15:24:51;;;;;;;;;;;;;;;;;;5084001;28;1520;-86
2022/01/16 15:27:17;;;;;;;;;;;;;;;;;;5068324;28;1654;-86
2022/01/16 15:29:43;;;;;;;;;;;;;;;;;;5078839;28;1828;-85
2022/01/16 15:32:08;;;;;;;;;;;;;;;;;;5085802;28;1324;-85
2022/01/16 15:34:33;;;;;;;;;;;;;;;;;;5088466;28;1641;-81
2022/01/16 15:36:59;;;;;;;;;;;;;;;;;;5080543;28;1902;-81
2022/01/16 15:39:26;;;;;;;;;;;;;;;;;;5084578;28;1504;-81
2022/01/16 15:41:51;;;;;;;;;;;;;;;;;;5084370;28;1889;-81
2022/01/16 15:44:16;;;;;;;;;;;;;;;;;;5068409;28;1280;-83
2022/01/16 15:46:41;;;;;;;;;;;;;;;;;;5070348;28;1659;-82
2022/01/16 15:49:07;;;;;;;;;;;;;;;;;;5082502;28;1625;-83
2022/01/16 15:51:32;;;;;;;;;;;;;;;;;;5086584;28;1732;-79
2022/01/16 15:53:57;;;;;;;;;;;;;;;;;;5080798;28;1658;-79
2022/01/16 15:56:22;;;;;;;;;;;;;;;;;;5083143;28;1906;-82
2022/01/16 15:58:48;;;;;;;;;;;;;;;;;;5084644;28;1256;-81
2022/01/16 16:01:13;;;;;;;;;;;;;;;;;;5080856;28;1657;-80
2022/01/16 16:03:38;;;;;;;;;;;;;;;;;;5083148;28;1732;-84
2022/01/16 16:06:03;;;;;;;;;;;;;;;;;;5082752;28;1563;-81
2022/01/16 16:08:29;;;;;;;;;;;;;;;;;;5081574;28;1614;-81
2022/01/16 16:10:55;;;;;;;;;;;;;;;;;;5083064;28;1766;-82
2022/01/16 16:13:20;;;;;;;;;;;;;;;;;;5081987;28;1698;-81
2022/01/16 16:15:45;;;;;;;;;;;;;;;;;;5086625;28;1898;-81
2022/01/16 16:18:11;;;;;;;;;;;;;;;;;;5085362;28;1986;-82
2022/01/16 16:20:37;;;;;;;;;;;;;;;;;;5083727;28;1598;-80
2022/01/16 16:23:02;;;;;;;;;;;;;;;;;;5084777;28;1252;-80
2022/01/16 16:25:28;;;;;;;;;;;;;;;;;;5082964;28;1597;-80
2022/01/16 16:27:53;;;;;;;;;;;;;;;;;;5084064;28;1242;-80
2022/01/16 16:30:19;;;;;;;;;;;;;;;;;;5082243;28;2019;-80
2022/01/16 16:32:44;;;;;;;;;;;;;;;;;;5085120;28;1735;-81
2022/01/16 16:35:14;;;;;;;;;;;;;;;;;;5084703;28;1625;-83
2022/01/16 16:37:39;;;;;;;;;;;;;;;;;;5082249;28;1910;-83
2022/01/16 16:40:07;;;;;;;;;;;;;;;;;;5084134;28;1550;-82
2022/01/16 16:42:35;;;;;;;;;;;;;;;;;;5083489;28;1109;-82
2022/01/16 16:45:01;;;;;;;;;;;;;;;;;;5083958;28;1144;-84
2022/01/16 16:47:26;;;;;;;;;;;;;;;;;;5081085;28;1850;-83
2022/01/16 16:49:51;;;;;;;;;;;;;;;;;;5082794;28;1427;-86
2022/01/16 16:52:17;;;;;;;;;;;;;;;;;;5081669;28;1785;-82
2022/01/16 16:54:42;;;;;;;;;;;;;;;;;;5084511;28;1271;-84
2022/01/16 16:57:08;;;;;;;;;;;;;;;;;;5082849;28;1902;-84
2022/01/16 16:59:33;;;;;;;;;;;;;;;;;;5081717;28;1233;-84
2022/01/16 17:01:59;;;;;;;;;;;;;;;;;;5070946;28;1655;-84
2022/01/16 17:04:24;;;;;;;;;;;;;;;;;;5093142;28;1924;-84
2022/01/16 17:06:50;;;;;;;;;;;;;;;;;;5090699;28;1671;-85
2022/01/16 17:09:15;;;;;;;;;;;;;;;;;;5085199;28;1540;-84
2022/01/16 17:11:41;;;;;;;;;;;;;;;;;;5072128;28;1693;-84
2022/01/16 17:14:06;;;;;;;;;;;;;;;;;;5071901;28;1097;-85
2022/01/16 17:16:31;;;;;;;;;;;;;;;;;;5091171;28;1921;-85
2022/01/16 17:19:03;;;;;;;;;;;;;;;;;;5060316;28;1905;-86
2022/01/16 17:21:28;;;;;;;;;;;;;;;;;;5081757;28;1568;-87
2022/01/16 17:23:54;;;;;;;;;;;;;;;;;;5056547;28;1655;-84
2022/01/16 17:26:19;;;;;;;;;;;;;;;;;;5073176;28;1642;-83
2022/01/16 17:28:44;;;;;;;;;;;;;;;;;;5071138;28;1682;-82
2022/01/16 17:31:09;;;;;;;;;;;;;;;;;;5072819;28;1758;-83
2022/01/16 17:33:35;;;;;;;;;;;;;;;;;;5091961;28;1761;-82
2022/01/16 17:36:00;;;;;;;;;;;;;;;;;;5088130;28;1905;-82
2022/01/16 17:38:25;;;;;;;;;;;;;;;;;;5084603;28;1750;-80
2022/01/16 17:40:50;;;;;;;;;;;;;;;;;;5088813;28;1575;-82
2022/01/16 17:43:15;;;;;;;;;;;;;;;;;;5088855;28;1603;-81
2022/01/16 17:45:42;;;;;;;;;;;;;;;;;;5106676;28;1102;-79
2022/01/16 17:48:07;;;;;;;;;;;;;;;;;;5076342;28;1628;-81
2022/01/16 17:50:32;;;;;;;;;;;;;;;;;;5091747;28;1146;-83